sensor_id;sensor_type;location;lat;lon;timestamp;temperature;humidity
17986;DHT22;9118;48.122;11.546;2022-09-30T00:01:01;9.20;99.90
17986;DHT22;9118;48.122;11.546;2022-09-30T00:03:28;9.20;99.90
17986;DHT22;9118;48.122;11.546;2022-09-30T00:05:57;9.30;99.90
17986;DHT22;9118;48.122;11.546;2022-09-30T00:08:25;9.30;99.90
17986;DHT22;9118;48.122;11.546;2022-09-30T00:11:00;9.20;99.90
17986;DHT22;9118;48.122;11.546;2022-09-30T00:13:28;9.20;99.90
17986;DHT22;9118;48.122;11.546;2022-09-30T00:15:55;9.20;99.90
17986;DHT22;9118;48.122;11.546;2022-09-30T00:18:24;9.30;99.90
17986;DHT22;9118;48.122;11.546;2022-09-30T00:20:51;9.50;99.90
17986;DHT22;9118;48.122;11.546;2022-09-30T00:23:20;9.60;99.90
17986;DHT22;9118;48.122;11.546;2022-09-30T00:25:48;9.40;99.90
17986;DHT22;9118;48.122;11.546;2022-09-30T00:28:16;9.40;99.90
17986;DHT22;9118;48.122;11.546;2022-09-30T00:30:43;9.30;99.90
17986;DHT22;9118;48.122;11.546;2022-09-30T00:33:10;9.20;99.90
17986;DHT22;9118;48.122;11.546;2022-09-30T00:35:37;9.20;99.90
17986;DHT22;9118;48.122;11.546;2022-09-30T00:38:05;9.10;99.90
17986;DHT22;9118;48.122;11.546;2022-09-30T00:40:33;9.10;99.90
17986;DHT22;9118;48.122;11.546;2022-09-30T00:43:07;9.10;99.90
17986;DHT22;9118;48.122;11.546;2022-09-30T00:45:37;9.20;99.90
17986;DHT22;9118;48.122;11.546;2022-09-30T00:48:07;9.10;99.90
17986;DHT22;9118;48.122;11.546;2022-09-30T00:50:39;9.10;99.90
17986;DHT22;9118;48.122;11.546;2022-09-30T00:53:14;9.00;99.90
17986;DHT22;9118;48.122;11.546;2022-09-30T00:55:58;9.00;99.90
17986;DHT22;9118;48.122;11.546;2022-09-30T00:58:30;9.00;99.90
17986;DHT22;9118;48.122;11.546;2022-09-30T01:01:00;9.00;99.90
17986;DHT22;9118;48.122;11.546;2022-09-30T01:03:30;9.00;99.90
17986;DHT22;9118;48.122;11.546;2022-09-30T01:05:57;9.00;99.90
17986;DHT22;9118;48.122;11.546;2022-09-30T01:08:25;9.00;99.90
17986;DHT22;9118;48.122;11.546;2022-09-30T01:10:53;8.90;99.90
17986;DHT22;9118;48.122;11.546;2022-09-30T01:13:24;9.00;99.90
17986;DHT22;9118;48.122;11.546;2022-09-30T01:19:07;9.00;99.90
17986;DHT22;9118;48.122;11.546;2022-09-30T01:21:58;9.00;99.90
17986;DHT22;9118;48.122;11.546;2022-09-30T01:24:47;9.00;99.90
17986;DHT22;9118;48.122;11.546;2022-09-30T01:27:38;9.00;99.90
17986;DHT22;9118;48.122;11.546;2022-09-30T01:30:16;9.00;99.90
17986;DHT22;9118;48.122;11.546;2022-09-30T01:33:01;9.00;99.90
17986;DHT22;9118;48.122;11.546;2022-09-30T01:35:38;8.90;99.90
17986;DHT22;9118;48.122;11.546;2022-09-30T01:38:12;9.00;99.90
17986;DHT22;9118;48.122;11.546;2022-09-30T01:40:46;9.00;99.90
17986;DHT22;9118;48.122;11.546;2022-09-30T01:43:23;9.00;99.90
17986;DHT22;9118;48.122;11.546;2022-09-30T01:45:56;9.00;99.90
17986;DHT22;9118;48.122;11.546;2022-09-30T01:48:32;9.00;99.90
17986;DHT22;9118;48.122;11.546;2022-09-30T01:51:06;9.00;99.90
17986;DHT22;9118;48.122;11.546;2022-09-30T01:53:39;9.00;99.90
17986;DHT22;9118;48.122;11.546;2022-09-30T01:56:13;9.00;99.90
17986;DHT22;9118;48.122;11.546;2022-09-30T01:58:45;9.00;99.90
17986;DHT22;9118;48.122;11.546;2022-09-30T02:01:22;9.00;99.90
17986;DHT22;9118;48.122;11.546;2022-09-30T02:03:54;9.00;99.90
17986;DHT22;9118;48.122;11.546;2022-09-30T02:06:25;9.00;99.90
17986;DHT22;9118;48.122;11.546;2022-09-30T02:08:57;9.00;99.90
17986;DHT22;9118;48.122;11.546;2022-09-30T02:11:27;9.00;99.90
17986;DHT22;9118;48.122;11.546;2022-09-30T02:14:00;9.00;99.90
17986;DHT22;9118;48.122;11.546;2022-09-30T02:16:33;9.00;99.90
17986;DHT22;9118;48.122;11.546;2022-09-30T02:19:05;9.00;99.90
17986;DHT22;9118;48.122;11.546;2022-09-30T02:21:38;8.90;99.90
17986;DHT22;9118;48.122;11.546;2022-09-30T02:24:09;9.00;99.90
17986;DHT22;9118;48.122;11.546;2022-09-30T02:26:40;8.90;99.90
17986;DHT22;9118;48.122;11.546;2022-09-30T02:29:13;9.10;99.90
17986;DHT22;9118;48.122;11.546;2022-09-30T02:31:42;8.90;99.90
17986;DHT22;9118;48.122;11.546;2022-09-30T02:34:14;8.90;99.90
17986;DHT22;9118;48.122;11.546;2022-09-30T02:36:44;8.90;99.90
17986;DHT22;9118;48.122;11.546;2022-09-30T02:39:14;8.90;99.90
17986;DHT22;9118;48.122;11.546;2022-09-30T02:41:49;8.90;99.90
17986;DHT22;9118;48.122;11.546;2022-09-30T02:44:17;8.70;99.90
17986;DHT22;9118;48.122;11.546;2022-09-30T02:46:52;10.10;99.90
17986;DHT22;9118;48.122;11.546;2022-09-30T02:49:27;8.80;99.90
17986;DHT22;9118;48.122;11.546;2022-09-30T02:52:06;8.80;99.90
17986;DHT22;9118;48.122;11.546;2022-09-30T02:54:43;8.80;99.90
17986;DHT22;9118;48.122;11.546;2022-09-30T02:57:18;8.80;99.90
17986;DHT22;9118;48.122;11.546;2022-09-30T02:59:47;8.70;99.90
17986;DHT22;9118;48.122;11.546;2022-09-30T03:02:17;8.80;99.90
17986;DHT22;9118;48.122;11.546;2022-09-30T03:04:46;8.70;99.90
17986;DHT22;9118;48.122;11.546;2022-09-30T03:07:15;8.70;99.90
17986;DHT22;9118;48.122;11.546;2022-09-30T03:09:42;8.70;99.90
17986;DHT22;9118;48.122;11.546;2022-09-30T03:12:16;8.80;99.90
17986;DHT22;9118;48.122;11.546;2022-09-30T03:17:54;8.80;99.90
17986;DHT22;9118;48.122;11.546;2022-09-30T03:20:48;8.70;99.90
17986;DHT22;9118;48.122;11.546;2022-09-30T03:23:34;8.70;99.90
17986;DHT22;9118;48.122;11.546;2022-09-30T03:26:14;8.70;99.90
17986;DHT22;9118;48.122;11.546;2022-09-30T03:28:51;8.70;99.90
17986;DHT22;9118;48.122;11.546;2022-09-30T03:31:28;8.70;99.90
17986;DHT22;9118;48.122;11.546;2022-09-30T03:34:06;8.70;99.90
17986;DHT22;9118;48.122;11.546;2022-09-30T03:36:40;8.70;99.90
17986;DHT22;9118;48.122;11.546;2022-09-30T03:39:20;8.70;99.90
17986;DHT22;9118;48.122;11.546;2022-09-30T03:41:53;8.70;99.90
17986;DHT22;9118;48.122;11.546;2022-09-30T03:44:27;8.70;99.90
17986;DHT22;9118;48.122;11.546;2022-09-30T03:46:58;8.70;99.90
17986;DHT22;9118;48.122;11.546;2022-09-30T03:49:30;8.70;99.90
17986;DHT22;9118;48.122;11.546;2022-09-30T03:52:04;8.70;99.90
17986;DHT22;9118;48.122;11.546;2022-09-30T03:54:31;8.70;99.90
17986;DHT22;9118;48.122;11.546;2022-09-30T03:57:03;8.70;99.90
17986;DHT22;9118;48.122;11.546;2022-09-30T03:59:30;8.70;99.90
17986;DHT22;9118;48.122;11.546;2022-09-30T04:01:57;8.60;99.90
17986;DHT22;9118;48.122;11.546;2022-09-30T04:04:25;8.60;99.90
17986;DHT22;9118;48.122;11.546;2022-09-30T04:06:52;8.60;99.90
17986;DHT22;9118;48.122;11.546;2022-09-30T04:09:21;8.60;99.90
17986;DHT22;9118;48.122;11.546;2022-09-30T04:11:48;8.60;99.90
17986;DHT22;9118;48.122;11.546;2022-09-30T04:14:15;8.60;99.90
17986;DHT22;9118;48.122;11.546;2022-09-30T04:16:42;8.60;99.90
17986;DHT22;9118;48.122;11.546;2022-09-30T04:19:09;8.60;99.90
17986;DHT22;9118;48.122;11.546;2022-09-30T04:21:36;8.60;99.90
17986;DHT22;9118;48.122;11.546;2022-09-30T04:24:10;8.50;99.90
17986;DHT22;9118;48.122;11.546;2022-09-30T04:26:41;9.00;99.90
17986;DHT22;9118;48.122;11.546;2022-09-30T04:29:10;8.50;99.90
17986;DHT22;9118;48.122;11.546;2022-09-30T04:31:40;8.80;99.90
17986;DHT22;9118;48.122;11.546;2022-09-30T04:34:08;8.60;99.90
17986;DHT22;9118;48.122;11.546;2022-09-30T04:36:36;8.60;99.90
17986;DHT22;9118;48.122;11.546;2022-09-30T04:39:04;8.80;99.90
17986;DHT22;9118;48.122;11.546;2022-09-30T04:41:31;8.40;99.90
17986;DHT22;9118;48.122;11.546;2022-09-30T04:44:01;8.50;99.90
17986;DHT22;9118;48.122;11.546;2022-09-30T04:46:31;8.50;99.90
17986;DHT22;9118;48.122;11.546;2022-09-30T04:49:01;8.50;99.90
17986;DHT22;9118;48.122;11.546;2022-09-30T04:51:29;8.50;99.90
17986;DHT22;9118;48.122;11.546;2022-09-30T04:53:56;8.40;99.90
17986;DHT22;9118;48.122;11.546;2022-09-30T04:56:23;8.40;99.90
17986;DHT22;9118;48.122;11.546;2022-09-30T04:58:51;8.40;99.90
17986;DHT22;9118;48.122;11.546;2022-09-30T05:01:20;8.40;99.90
17986;DHT22;9118;48.122;11.546;2022-09-30T05:03:47;8.40;99.90
17986;DHT22;9118;48.122;11.546;2022-09-30T05:06:16;8.40;99.90
17986;DHT22;9118;48.122;11.546;2022-09-30T05:08:43;8.40;99.90
17986;DHT22;9118;48.122;11.546;2022-09-30T05:11:13;8.40;99.90
17986;DHT22;9118;48.122;11.546;2022-09-30T05:13:42;8.40;99.90
17986;DHT22;9118;48.122;11.546;2022-09-30T05:16:10;8.30;99.90
17986;DHT22;9118;48.122;11.546;2022-09-30T05:18:39;8.30;99.90
17986;DHT22;9118;48.122;11.546;2022-09-30T05:21:11;8.30;99.90
17986;DHT22;9118;48.122;11.546;2022-09-30T05:23:39;8.40;99.90
17986;DHT22;9118;48.122;11.546;2022-09-30T05:26:06;8.40;99.90
17986;DHT22;9118;48.122;11.546;2022-09-30T05:28:35;8.40;99.90
17986;DHT22;9118;48.122;11.546;2022-09-30T05:31:03;8.50;99.90
17986;DHT22;9118;48.122;11.546;2022-09-30T05:33:32;8.40;99.90
17986;DHT22;9118;48.122;11.546;2022-09-30T05:36:09;8.50;99.90
17986;DHT22;9118;48.122;11.546;2022-09-30T05:38:39;8.50;99.90
17986;DHT22;9118;48.122;11.546;2022-09-30T05:41:07;8.50;99.90
17986;DHT22;9118;48.122;11.546;2022-09-30T05:43:37;8.50;99.90
17986;DHT22;9118;48.122;11.546;2022-09-30T05:46:04;8.60;99.90
17986;DHT22;9118;48.122;11.546;2022-09-30T05:48:32;8.50;99.90
17986;DHT22;9118;48.122;11.546;2022-09-30T05:50:59;8.60;99.90
17986;DHT22;9118;48.122;11.546;2022-09-30T05:53:30;8.60;99.90
17986;DHT22;9118;48.122;11.546;2022-09-30T05:55:58;8.60;99.90
17986;DHT22;9118;48.122;11.546;2022-09-30T05:58:25;8.60;99.90
17986;DHT22;9118;48.122;11.546;2022-09-30T06:00:53;8.80;99.90
17986;DHT22;9118;48.122;11.546;2022-09-30T06:03:20;8.70;99.90
17986;DHT22;9118;48.122;11.546;2022-09-30T06:05:47;8.80;99.90
17986;DHT22;9118;48.122;11.546;2022-09-30T06:08:14;8.90;99.90
17986;DHT22;9118;48.122;11.546;2022-09-30T06:10:43;8.90;99.90
17986;DHT22;9118;48.122;11.546;2022-09-30T06:13:11;9.00;99.90
17986;DHT22;9118;48.122;11.546;2022-09-30T06:15:38;9.00;99.90
17986;DHT22;9118;48.122;11.546;2022-09-30T06:18:06;9.00;99.90
17986;DHT22;9118;48.122;11.546;2022-09-30T06:20:34;9.00;99.90
17986;DHT22;9118;48.122;11.546;2022-09-30T06:23:01;9.00;99.90
17986;DHT22;9118;48.122;11.546;2022-09-30T06:25:29;9.00;99.90
17986;DHT22;9118;48.122;11.546;2022-09-30T06:27:58;9.10;99.90
17986;DHT22;9118;48.122;11.546;2022-09-30T06:30:27;9.10;99.90
17986;DHT22;9118;48.122;11.546;2022-09-30T06:32:56;9.10;99.90
17986;DHT22;9118;48.122;11.546;2022-09-30T06:35:23;9.10;99.90
17986;DHT22;9118;48.122;11.546;2022-09-30T06:37:53;9.20;99.90
17986;DHT22;9118;48.122;11.546;2022-09-30T06:40:20;9.30;99.90
17986;DHT22;9118;48.122;11.546;2022-09-30T06:42:48;9.30;99.90
17986;DHT22;9118;48.122;11.546;2022-09-30T06:45:17;9.40;99.90
17986;DHT22;9118;48.122;11.546;2022-09-30T06:47:49;9.40;99.90
17986;DHT22;9118;48.122;11.546;2022-09-30T06:50:17;9.50;99.90
17986;DHT22;9118;48.122;11.546;2022-09-30T06:52:44;9.50;99.90
17986;DHT22;9118;48.122;11.546;2022-09-30T06:55:12;9.70;99.90
17986;DHT22;9118;48.122;11.546;2022-09-30T06:57:40;9.70;99.90
17986;DHT22;9118;48.122;11.546;2022-09-30T07:00:10;9.30;99.90
17986;DHT22;9118;48.122;11.546;2022-09-30T07:02:40;9.90;99.90
17986;DHT22;9118;48.122;11.546;2022-09-30T07:05:08;9.90;99.90
17986;DHT22;9118;48.122;11.546;2022-09-30T07:07:35;9.90;99.90
17986;DHT22;9118;48.122;11.546;2022-09-30T07:10:03;10.00;99.90
17986;DHT22;9118;48.122;11.546;2022-09-30T07:12:30;10.10;99.90
17986;DHT22;9118;48.122;11.546;2022-09-30T07:14:57;10.10;99.90
17986;DHT22;9118;48.122;11.546;2022-09-30T07:17:24;10.20;99.90
17986;DHT22;9118;48.122;11.546;2022-09-30T07:19:53;10.30;99.90
17986;DHT22;9118;48.122;11.546;2022-09-30T07:22:20;10.20;99.90
17986;DHT22;9118;48.122;11.546;2022-09-30T07:24:54;10.30;99.90
17986;DHT22;9118;48.122;11.546;2022-09-30T07:27:22;10.30;99.90
17986;DHT22;9118;48.122;11.546;2022-09-30T07:29:50;10.40;99.90
17986;DHT22;9118;48.122;11.546;2022-09-30T07:32:17;10.40;99.90
17986;DHT22;9118;48.122;11.546;2022-09-30T07:34:45;10.40;99.90
17986;DHT22;9118;48.122;11.546;2022-09-30T07:37:15;10.50;99.90
17986;DHT22;9118;48.122;11.546;2022-09-30T07:39:45;10.50;99.90
17986;DHT22;9118;48.122;11.546;2022-09-30T07:42:14;10.60;99.90
17986;DHT22;9118;48.122;11.546;2022-09-30T07:44:44;10.70;99.90
17986;DHT22;9118;48.122;11.546;2022-09-30T07:47:11;10.80;99.90
17986;DHT22;9118;48.122;11.546;2022-09-30T07:49:40;10.90;99.90
17986;DHT22;9118;48.122;11.546;2022-09-30T07:52:09;10.90;99.90
17986;DHT22;9118;48.122;11.546;2022-09-30T07:54:38;10.90;99.90
17986;DHT22;9118;48.122;11.546;2022-09-30T07:57:05;10.90;99.90
17986;DHT22;9118;48.122;11.546;2022-09-30T07:59:35;11.00;99.90
17986;DHT22;9118;48.122;11.546;2022-09-30T08:02:03;10.90;99.90
17986;DHT22;9118;48.122;11.546;2022-09-30T08:04:31;10.90;99.90
17986;DHT22;9118;48.122;11.546;2022-09-30T08:07:00;11.00;99.90
17986;DHT22;9118;48.122;11.546;2022-09-30T08:09:29;11.00;99.90
17986;DHT22;9118;48.122;11.546;2022-09-30T08:12:20;11.10;99.90
17986;DHT22;9118;48.122;11.546;2022-09-30T08:14:50;11.30;99.90
17986;DHT22;9118;48.122;11.546;2022-09-30T08:17:18;11.30;99.90
17986;DHT22;9118;48.122;11.546;2022-09-30T08:19:47;11.20;99.90
17986;DHT22;9118;48.122;11.546;2022-09-30T08:22:16;11.50;99.90
17986;DHT22;9118;48.122;11.546;2022-09-30T08:24:43;11.40;99.90
17986;DHT22;9118;48.122;11.546;2022-09-30T08:27:12;11.40;99.90
17986;DHT22;9118;48.122;11.546;2022-09-30T08:29:39;11.50;99.90
17986;DHT22;9118;48.122;11.546;2022-09-30T08:32:07;11.60;99.90
17986;DHT22;9118;48.122;11.546;2022-09-30T08:34:36;11.60;99.90
17986;DHT22;9118;48.122;11.546;2022-09-30T08:37:05;11.70;99.90
17986;DHT22;9118;48.122;11.546;2022-09-30T08:39:38;11.90;99.90
17986;DHT22;9118;48.122;11.546;2022-09-30T08:48:38;12.50;99.90
17986;DHT22;9118;48.122;11.546;2022-09-30T08:51:22;12.60;99.90
17986;DHT22;9118;48.122;11.546;2022-09-30T08:54:08;12.60;99.90
17986;DHT22;9118;48.122;11.546;2022-09-30T08:56:39;12.70;99.90
17986;DHT22;9118;48.122;11.546;2022-09-30T08:59:23;14.10;99.90
17986;DHT22;9118;48.122;11.546;2022-09-30T09:02:14;12.70;99.90
17986;DHT22;9118;48.122;11.546;2022-09-30T09:05:01;12.70;99.90
17986;DHT22;9118;48.122;11.546;2022-09-30T09:07:37;12.60;99.90
17986;DHT22;9118;48.122;11.546;2022-09-30T09:10:18;12.60;99.90
17986;DHT22;9118;48.122;11.546;2022-09-30T09:13:11;12.50;99.90
17986;DHT22;9118;48.122;11.546;2022-09-30T09:15:58;12.70;99.90
17986;DHT22;9118;48.122;11.546;2022-09-30T09:18:38;12.70;99.90
17986;DHT22;9118;48.122;11.546;2022-09-30T09:21:44;12.80;99.90
17986;DHT22;9118;48.122;11.546;2022-09-30T09:24:20;13.00;99.90
17986;DHT22;9118;48.122;11.546;2022-09-30T09:27:15;12.80;99.90
17986;DHT22;9118;48.122;11.546;2022-09-30T09:30:08;13.00;99.90
17986;DHT22;9118;48.122;11.546;2022-09-30T09:33:09;13.00;99.90
17986;DHT22;9118;48.122;11.546;2022-09-30T09:36:04;13.00;99.90
17986;DHT22;9118;48.122;11.546;2022-09-30T09:38:43;13.00;99.90
17986;DHT22;9118;48.122;11.546;2022-09-30T09:41:25;12.90;99.90
17986;DHT22;9118;48.122;11.546;2022-09-30T09:44:13;13.00;99.90
17986;DHT22;9118;48.122;11.546;2022-09-30T09:46:58;12.90;99.90
17986;DHT22;9118;48.122;11.546;2022-09-30T09:49:41;14.00;99.90
17986;DHT22;9118;48.122;11.546;2022-09-30T09:55:29;13.30;99.90
17986;DHT22;9118;48.122;11.546;2022-09-30T09:58:05;13.40;99.90
17986;DHT22;9118;48.122;11.546;2022-09-30T10:00:33;13.40;99.90
17986;DHT22;9118;48.122;11.546;2022-09-30T10:03:19;13.60;99.90
17986;DHT22;9118;48.122;11.546;2022-09-30T10:06:07;14.00;99.90
17986;DHT22;9118;48.122;11.546;2022-09-30T10:08:53;14.00;99.90
17986;DHT22;9118;48.122;11.546;2022-09-30T10:11:28;14.10;99.90
17986;DHT22;9118;48.122;11.546;2022-09-30T10:13:59;15.20;99.90
17986;DHT22;9118;48.122;11.546;2022-09-30T10:16:31;14.10;99.90
17986;DHT22;9118;48.122;11.546;2022-09-30T10:19:00;14.00;99.90
17986;DHT22;9118;48.122;11.546;2022-09-30T10:21:32;13.90;99.90
17986;DHT22;9118;48.122;11.546;2022-09-30T10:24:27;13.80;99.90
17986;DHT22;9118;48.122;11.546;2022-09-30T10:30:39;12.30;99.90
17986;DHT22;9118;48.122;11.546;2022-09-30T10:33:21;13.70;99.90
17986;DHT22;9118;48.122;11.546;2022-09-30T10:38:58;13.60;99.90
17986;DHT22;9118;48.122;11.546;2022-09-30T10:41:28;13.70;99.90
17986;DHT22;9118;48.122;11.546;2022-09-30T10:44:02;13.80;99.90
17986;DHT22;9118;48.122;11.546;2022-09-30T10:46:38;13.90;99.90
17986;DHT22;9118;48.122;11.546;2022-09-30T10:49:23;14.00;99.90
17986;DHT22;9118;48.122;11.546;2022-09-30T10:51:52;14.10;99.90
17986;DHT22;9118;48.122;11.546;2022-09-30T10:54:48;14.30;99.90
17986;DHT22;9118;48.122;11.546;2022-09-30T10:57:32;14.60;99.90
17986;DHT22;9118;48.122;11.546;2022-09-30T11:00:03;14.80;99.90
17986;DHT22;9118;48.122;11.546;2022-09-30T11:02:38;14.90;99.90
17986;DHT22;9118;48.122;11.546;2022-09-30T11:05:15;15.00;99.90
17986;DHT22;9118;48.122;11.546;2022-09-30T11:07:48;15.10;99.90
17986;DHT22;9118;48.122;11.546;2022-09-30T11:10:40;15.20;99.90
17986;DHT22;9118;48.122;11.546;2022-09-30T11:13:41;15.80;99.90
17986;DHT22;9118;48.122;11.546;2022-09-30T11:23:19;15.10;99.90
17986;DHT22;9118;48.122;11.546;2022-09-30T11:26:09;15.10;99.90
17986;DHT22;9118;48.122;11.546;2022-09-30T11:28:57;15.00;99.90
17986;DHT22;9118;48.122;11.546;2022-09-30T11:31:54;15.00;99.90
17986;DHT22;9118;48.122;11.546;2022-09-30T11:34:34;15.40;99.90
17986;DHT22;9118;48.122;11.546;2022-09-30T11:37:16;14.60;99.90
17986;DHT22;9118;48.122;11.546;2022-09-30T11:40:22;14.30;99.90
17986;DHT22;9118;48.122;11.546;2022-09-30T11:42:57;14.10;99.90
17986;DHT22;9118;48.122;11.546;2022-09-30T11:45:38;14.00;99.90
17986;DHT22;9118;48.122;11.546;2022-09-30T11:48:34;13.80;99.90
17986;DHT22;9118;48.122;11.546;2022-09-30T11:51:18;13.60;99.90
17986;DHT22;9118;48.122;11.546;2022-09-30T11:54:16;13.80;99.90
17986;DHT22;9118;48.122;11.546;2022-09-30T11:57:22;13.80;99.90
17986;DHT22;9118;48.122;11.546;2022-09-30T11:59:57;13.50;99.90
17986;DHT22;9118;48.122;11.546;2022-09-30T12:02:33;13.60;99.90
17986;DHT22;9118;48.122;11.546;2022-09-30T12:05:18;13.60;99.90
17986;DHT22;9118;48.122;11.546;2022-09-30T12:08:03;13.00;99.90
17986;DHT22;9118;48.122;11.546;2022-09-30T12:10:50;13.80;99.90
17986;DHT22;9118;48.122;11.546;2022-09-30T12:26:21;15.50;99.90
17986;DHT22;9118;48.122;11.546;2022-09-30T12:28:52;15.20;99.90
17986;DHT22;9118;48.122;11.546;2022-09-30T12:31:57;14.40;99.90
17986;DHT22;9118;48.122;11.546;2022-09-30T12:35:01;14.50;99.90
17986;DHT22;9118;48.122;11.546;2022-09-30T12:37:55;14.50;99.90
17986;DHT22;9118;48.122;11.546;2022-09-30T12:40:52;14.60;99.90
17986;DHT22;9118;48.122;11.546;2022-09-30T12:43:59;14.80;99.90
17986;DHT22;9118;48.122;11.546;2022-09-30T12:46:49;15.00;99.90
17986;DHT22;9118;48.122;11.546;2022-09-30T12:49:26;15.10;99.90
17986;DHT22;9118;48.122;11.546;2022-09-30T12:52:10;16.50;99.90
17986;DHT22;9118;48.122;11.546;2022-09-30T12:55:24;15.20;99.90
17986;DHT22;9118;48.122;11.546;2022-09-30T12:58:18;15.10;99.90
17986;DHT22;9118;48.122;11.546;2022-09-30T13:01:10;14.90;99.90
17986;DHT22;9118;48.122;11.546;2022-09-30T13:04:17;15.00;99.90
17986;DHT22;9118;48.122;11.546;2022-09-30T13:07:22;15.80;99.90
17986;DHT22;9118;48.122;11.546;2022-09-30T13:10:26;14.70;99.90
17986;DHT22;9118;48.122;11.546;2022-09-30T13:13:21;15.00;99.90
17986;DHT22;9118;48.122;11.546;2022-09-30T13:32:05;15.10;99.90
17986;DHT22;9118;48.122;11.546;2022-09-30T13:38:13;15.30;99.90
17986;DHT22;9118;48.122;11.546;2022-09-30T13:40:44;15.30;99.90
17986;DHT22;9118;48.122;11.546;2022-09-30T13:43:18;15.30;99.90
17986;DHT22;9118;48.122;11.546;2022-09-30T13:45:48;15.30;99.90
17986;DHT22;9118;48.122;11.546;2022-09-30T13:48:26;16.60;99.90
17986;DHT22;9118;48.122;11.546;2022-09-30T13:50:56;15.20;99.90
17986;DHT22;9118;48.122;11.546;2022-09-30T13:53:28;15.20;99.90
17986;DHT22;9118;48.122;11.546;2022-09-30T13:56:00;15.20;99.90
17986;DHT22;9118;48.122;11.546;2022-09-30T13:59:00;15.20;99.90
17986;DHT22;9118;48.122;11.546;2022-09-30T14:01:49;15.10;99.90
17986;DHT22;9118;48.122;11.546;2022-09-30T14:04:48;15.10;99.90
17986;DHT22;9118;48.122;11.546;2022-09-30T14:07:30;15.30;99.90
17986;DHT22;9118;48.122;11.546;2022-09-30T14:10:22;15.00;99.90
17986;DHT22;9118;48.122;11.546;2022-09-30T14:13:17;15.00;99.90
17986;DHT22;9118;48.122;11.546;2022-09-30T14:19:04;15.00;99.90
17986;DHT22;9118;48.122;11.546;2022-09-30T14:21:41;15.10;99.90
17986;DHT22;9118;48.122;11.546;2022-09-30T14:24:14;16.00;99.90
17986;DHT22;9118;48.122;11.546;2022-09-30T14:26:57;15.30;99.90
17986;DHT22;9118;48.122;11.546;2022-09-30T14:29:35;15.40;99.90
17986;DHT22;9118;48.122;11.546;2022-09-30T14:32:11;15.40;99.90
17986;DHT22;9118;48.122;11.546;2022-09-30T14:34:44;15.40;99.90
17986;DHT22;9118;48.122;11.546;2022-09-30T14:37:20;15.30;99.90
17986;DHT22;9118;48.122;11.546;2022-09-30T14:39:48;15.20;99.90
17986;DHT22;9118;48.122;11.546;2022-09-30T14:42:23;15.20;99.90
17986;DHT22;9118;48.122;11.546;2022-09-30T14:44:55;15.10;99.90
17986;DHT22;9118;48.122;11.546;2022-09-30T14:47:30;15.10;99.90
17986;DHT22;9118;48.122;11.546;2022-09-30T14:49:59;15.00;99.90
17986;DHT22;9118;48.122;11.546;2022-09-30T14:52:37;15.00;99.90
17986;DHT22;9118;48.122;11.546;2022-09-30T14:55:19;14.80;99.90
17986;DHT22;9118;48.122;11.546;2022-09-30T14:57:49;14.80;99.90
17986;DHT22;9118;48.122;11.546;2022-09-30T15:00:28;14.70;99.90
17986;DHT22;9118;48.122;11.546;2022-09-30T15:02:57;14.60;99.90
17986;DHT22;9118;48.122;11.546;2022-09-30T15:05:24;14.60;99.90
17986;DHT22;9118;48.122;11.546;2022-09-30T15:07:54;14.50;99.90
17986;DHT22;9118;48.122;11.546;2022-09-30T15:10:22;14.50;99.90
17986;DHT22;9118;48.122;11.546;2022-09-30T15:12:50;14.50;99.90
17986;DHT22;9118;48.122;11.546;2022-09-30T15:15:35;14.40;99.90
17986;DHT22;9118;48.122;11.546;2022-09-30T15:18:31;14.30;99.90
17986;DHT22;9118;48.122;11.546;2022-09-30T15:21:05;14.30;99.90
17986;DHT22;9118;48.122;11.546;2022-09-30T15:23:41;14.30;99.90
17986;DHT22;9118;48.122;11.546;2022-09-30T15:26:11;14.40;99.90
17986;DHT22;9118;48.122;11.546;2022-09-30T15:28:42;14.50;99.90
17986;DHT22;9118;48.122;11.546;2022-09-30T15:31:23;14.60;99.90
17986;DHT22;9118;48.122;11.546;2022-09-30T15:34:28;14.70;99.90
17986;DHT22;9118;48.122;11.546;2022-09-30T15:37:01;14.70;99.90
17986;DHT22;9118;48.122;11.546;2022-09-30T15:39:40;14.90;99.90
17986;DHT22;9118;48.122;11.546;2022-09-30T15:42:32;14.50;99.90
17986;DHT22;9118;48.122;11.546;2022-09-30T15:45:37;14.40;99.90
17986;DHT22;9118;48.122;11.546;2022-09-30T15:48:32;14.30;99.90
17986;DHT22;9118;48.122;11.546;2022-09-30T15:51:27;14.10;99.90
17986;DHT22;9118;48.122;11.546;2022-09-30T15:53:59;14.00;99.90
17986;DHT22;9118;48.122;11.546;2022-09-30T15:56:36;13.90;99.90
17986;DHT22;9118;48.122;11.546;2022-09-30T15:59:07;13.90;99.90
17986;DHT22;9118;48.122;11.546;2022-09-30T16:01:37;13.80;99.90
17986;DHT22;9118;48.122;11.546;2022-09-30T16:04:28;13.80;99.90
17986;DHT22;9118;48.122;11.546;2022-09-30T16:07:07;15.40;99.90
17986;DHT22;9118;48.122;11.546;2022-09-30T16:09:46;12.70;99.90
17986;DHT22;9118;48.122;11.546;2022-09-30T16:12:32;13.90;99.90
17986;DHT22;9118;48.122;11.546;2022-09-30T16:15:08;13.70;99.90
17986;DHT22;9118;48.122;11.546;2022-09-30T16:17:45;13.60;99.90
17986;DHT22;9118;48.122;11.546;2022-09-30T16:20:24;13.60;99.90
17986;DHT22;9118;48.122;11.546;2022-09-30T16:22:52;13.60;99.90
17986;DHT22;9118;48.122;11.546;2022-09-30T16:25:25;13.50;99.90
17986;DHT22;9118;48.122;11.546;2022-09-30T16:28:14;14.00;99.90
17986;DHT22;9118;48.122;11.546;2022-09-30T16:30:56;13.80;99.90
17986;DHT22;9118;48.122;11.546;2022-09-30T16:33:25;13.40;99.90
17986;DHT22;9118;48.122;11.546;2022-09-30T16:35:54;13.40;99.90
17986;DHT22;9118;48.122;11.546;2022-09-30T16:38:24;13.40;99.90
17986;DHT22;9118;48.122;11.546;2022-09-30T16:40:52;13.40;99.90
17986;DHT22;9118;48.122;11.546;2022-09-30T16:43:25;13.40;99.90
17986;DHT22;9118;48.122;11.546;2022-09-30T16:46:07;12.20;99.90
17986;DHT22;9118;48.122;11.546;2022-09-30T16:48:38;13.30;99.90
17986;DHT22;9118;48.122;11.546;2022-09-30T16:51:14;13.30;99.90
17986;DHT22;9118;48.122;11.546;2022-09-30T16:53:52;13.30;99.90
17986;DHT22;9118;48.122;11.546;2022-09-30T16:56:22;13.20;99.90
17986;DHT22;9118;48.122;11.546;2022-09-30T16:58:56;13.20;99.90
17986;DHT22;9118;48.122;11.546;2022-09-30T17:01:26;13.20;99.90
17986;DHT22;9118;48.122;11.546;2022-09-30T17:04:00;13.20;99.90
17986;DHT22;9118;48.122;11.546;2022-09-30T17:06:43;12.50;99.90
17986;DHT22;9118;48.122;11.546;2022-09-30T17:09:24;13.60;99.90
17986;DHT22;9118;48.122;11.546;2022-09-30T17:11:53;13.10;99.90
17986;DHT22;9118;48.122;11.546;2022-09-30T17:14:27;13.10;99.90
17986;DHT22;9118;48.122;11.546;2022-09-30T17:16:58;13.10;99.90
17986;DHT22;9118;48.122;11.546;2022-09-30T17:19:39;13.10;99.90
17986;DHT22;9118;48.122;11.546;2022-09-30T17:22:07;13.10;99.90
17986;DHT22;9118;48.122;11.546;2022-09-30T17:24:35;13.10;99.90
17986;DHT22;9118;48.122;11.546;2022-09-30T17:27:02;13.20;99.90
17986;DHT22;9118;48.122;11.546;2022-09-30T17:29:35;13.00;99.90
17986;DHT22;9118;48.122;11.546;2022-09-30T17:32:03;13.00;99.90
17986;DHT22;9118;48.122;11.546;2022-09-30T17:34:32;13.00;99.90